createdAt,value
2018-07-14T00:00:50.429Z,6.30
2018-07-14T00:01:56.755Z,5.55
2018-07-14T00:03:00.148Z,4.85
2018-07-14T00:04:03.555Z,4.80
2018-07-14T00:05:08.056Z,6.92
2018-07-14T00:06:13.020Z,5.37
2018-07-14T00:07:16.435Z,5.12
2018-07-14T00:08:19.823Z,5.78
2018-07-14T00:09:23.209Z,8.18
2018-07-14T00:10:31.385Z,5.20
2018-07-14T00:11:34.991Z,5.58
2018-07-14T00:12:38.390Z,4.25
2018-07-14T00:13:41.907Z,6.20
2018-07-14T00:14:44.987Z,6.05
2018-07-14T00:15:48.658Z,6.05
2018-07-14T00:16:52.119Z,5.45
2018-07-14T00:17:55.501Z,5.37
2018-07-14T00:18:58.871Z,6.28
2018-07-14T00:20:02.266Z,6.87
2018-07-14T00:21:07.798Z,4.85
2018-07-14T00:22:11.230Z,5.67
2018-07-14T00:23:14.615Z,7.28
2018-07-14T00:24:18.039Z,5.92
2018-07-14T00:25:27.344Z,6.05
2018-07-14T00:26:30.787Z,4.95
2018-07-14T00:27:34.186Z,4.62
2018-07-14T00:28:37.564Z,4.22
2018-07-14T00:29:40.955Z,5.08
2018-07-14T00:30:45.450Z,7.55
2018-07-14T00:31:48.851Z,4.87
2018-07-14T00:32:52.237Z,4.50
2018-07-14T00:33:55.627Z,4.00
2018-07-14T00:34:59.039Z,5.78
2018-07-14T00:36:03.458Z,4.90
2018-07-14T00:37:06.847Z,4.22
2018-07-14T00:38:10.240Z,5.10
2018-07-14T00:39:13.615Z,6.67
2018-07-14T00:40:18.075Z,6.70
2018-07-14T00:41:22.431Z,4.87
2018-07-14T00:42:25.827Z,7.78
2018-07-14T00:43:29.206Z,5.92
2018-07-14T00:44:32.592Z,4.10
2018-07-14T00:45:37.020Z,5.28
2018-07-14T00:46:40.432Z,5.28
2018-07-14T00:47:43.815Z,7.33
2018-07-14T00:48:47.203Z,7.80
2018-07-14T00:49:50.631Z,4.47
2018-07-14T00:50:55.044Z,7.55
2018-07-14T00:51:58.592Z,5.60
2018-07-14T00:53:02.088Z,6.83
2018-07-14T00:54:05.467Z,5.28
2018-07-14T00:55:10.603Z,5.97
2018-07-14T00:56:15.129Z,7.83
2018-07-14T00:57:18.588Z,5.58
2018-07-14T00:58:21.971Z,6.35
2018-07-14T00:59:25.348Z,8.75
2018-07-14T01:00:29.845Z,4.30
2018-07-14T01:01:33.380Z,5.92
2018-07-14T01:02:36.763Z,5.67
2018-07-14T01:03:40.148Z,9.05
2018-07-14T01:04:43.535Z,6.15
2018-07-14T01:05:47.889Z,5.92
2018-07-14T01:06:51.294Z,4.58
2018-07-14T01:07:54.683Z,7.17
2018-07-14T01:08:58.195Z,6.78
2018-07-14T01:10:01.588Z,7.22
2018-07-14T01:11:06.764Z,4.70
2018-07-14T01:12:10.195Z,6.85
2018-07-14T01:13:13.579Z,4.30
2018-07-14T01:14:16.963Z,5.83
2018-07-14T01:15:21.479Z,6.87
2018-07-14T01:16:26.494Z,6.22
2018-07-14T01:17:29.904Z,5.87
2018-07-14T01:18:33.291Z,8.18
2018-07-14T01:19:36.723Z,7.12
2018-07-14T01:20:41.204Z,5.50
2018-07-14T01:21:44.647Z,6.97
2018-07-14T01:22:48.052Z,5.72
2018-07-14T01:23:51.440Z,6.12
2018-07-14T01:24:54.838Z,5.12
2018-07-14T01:25:59.258Z,7.90
2018-07-14T01:27:02.732Z,7.30
2018-07-14T01:28:06.174Z,6.47
2018-07-14T01:29:09.547Z,4.90
2018-07-14T01:30:13.463Z,6.45
2018-07-14T01:31:17.999Z,6.30
2018-07-14T01:32:21.811Z,6.30
2018-07-14T01:33:25.200Z,4.25
2018-07-14T01:34:28.574Z,9.53
2018-07-14T01:35:33.642Z,5.03
2018-07-14T01:36:37.053Z,7.28
2018-07-14T01:37:40.455Z,5.22
2018-07-14T01:38:43.839Z,7.22
2018-07-14T01:39:47.229Z,10.82
2018-07-14T01:40:52.582Z,6.08
2018-07-14T01:41:55.979Z,4.67
2018-07-14T01:42:59.416Z,5.33
2018-07-14T01:44:02.804Z,7.12
2018-07-14T01:45:07.215Z,6.35
2018-07-14T01:46:11.725Z,5.62
2018-07-14T01:47:15.191Z,6.72
2018-07-14T01:48:18.287Z,6.08
2018-07-14T01:49:21.705Z,8.23
2018-07-14T01:50:26.166Z,7.45
2018-07-14T01:51:30.123Z,7.47
2018-07-14T01:52:33.515Z,6.37
2018-07-14T01:53:36.915Z,5.35
2018-07-14T01:54:40.324Z,6.50
2018-07-14T01:55:44.804Z,8.18
2018-07-14T01:56:48.191Z,7.90
2018-07-14T01:57:51.570Z,5.53
2018-07-14T01:58:54.972Z,8.48
2018-07-14T01:59:58.351Z,8.78
2018-07-14T02:01:02.844Z,7.47
2018-07-14T02:02:06.281Z,6.55
2018-07-14T02:03:09.663Z,7.08
2018-07-14T02:04:13.123Z,7.08
2018-07-14T02:05:17.573Z,7.22
2018-07-14T02:06:21.953Z,8.18
2018-07-14T02:07:25.370Z,8.10
2018-07-14T02:08:28.753Z,13.88
2018-07-14T02:09:32.156Z,8.58
2018-07-14T02:10:36.719Z,6.17
2018-07-14T02:11:40.143Z,8.43
2018-07-14T02:12:43.555Z,8.68
2018-07-14T02:13:47.124Z,7.15
2018-07-14T02:14:50.551Z,7.00
2018-07-14T02:15:54.925Z,5.72
2018-07-14T02:16:58.437Z,9.15
2018-07-14T02:18:01.820Z,6.25
2018-07-14T02:19:05.203Z,6.00
2018-07-14T02:20:09.287Z,5.00
2018-07-14T02:21:13.900Z,6.80
2018-07-14T02:22:17.311Z,6.60
2018-07-14T02:23:20.699Z,7.47
2018-07-14T02:24:24.187Z,7.50
2018-07-14T02:25:29.641Z,7.35
2018-07-14T02:26:32.746Z,6.03
2018-07-14T02:27:36.135Z,7.15
2018-07-14T02:28:39.504Z,8.15
2018-07-14T02:29:42.912Z,9.30
2018-07-14T02:30:47.158Z,9.53
2018-07-14T02:31:50.621Z,9.25
2018-07-14T02:32:54.002Z,6.50
2018-07-14T02:33:57.388Z,6.20
2018-07-14T02:35:00.787Z,4.92
2018-07-14T02:36:05.420Z,13.53
2018-07-14T02:37:08.559Z,12.45
2018-07-14T02:38:11.940Z,8.33
2018-07-14T02:39:15.322Z,6.92
2018-07-14T02:40:19.863Z,5.53
2018-07-14T02:41:24.379Z,6.53
2018-07-14T02:42:27.806Z,5.92
2018-07-14T02:43:31.203Z,6.72
2018-07-14T02:44:34.583Z,7.20
2018-07-14T02:45:39.245Z,7.47
2018-07-14T02:46:42.708Z,6.45
2018-07-14T02:47:46.095Z,6.95
2018-07-14T02:48:49.173Z,7.17
2018-07-14T02:49:52.555Z,6.30
2018-07-14T02:50:57.835Z,5.60
2018-07-14T02:52:01.328Z,7.17
2018-07-14T02:53:05.031Z,7.17
2018-07-14T02:54:08.412Z,8.45
2018-07-14T02:55:12.847Z,8.38
2018-07-14T02:56:16.647Z,8.60
2018-07-14T02:57:20.080Z,6.72
2018-07-14T02:58:23.475Z,5.00
2018-07-14T02:59:26.858Z,7.33
2018-07-14T03:00:31.287Z,7.22
2018-07-14T03:01:34.888Z,8.75
2018-07-14T03:02:38.301Z,6.15
2018-07-14T03:03:41.739Z,6.05
2018-07-14T03:04:45.177Z,7.83
2018-07-14T03:05:48.876Z,8.28
2018-07-14T03:06:52.459Z,7.15
2018-07-14T03:07:55.795Z,6.05
2018-07-14T03:08:59.183Z,6.10
2018-07-14T03:10:02.963Z,8.25
2018-07-14T03:11:07.565Z,6.37
2018-07-14T03:12:11.028Z,7.70
2018-07-14T03:13:14.114Z,6.60
2018-07-14T03:14:17.187Z,6.30
2018-07-14T03:15:21.761Z,6.20
2018-07-14T03:16:25.506Z,7.95
2018-07-14T03:17:28.940Z,9.25
2018-07-14T03:18:32.319Z,6.83
2018-07-14T03:19:35.985Z,6.85
2018-07-14T03:20:40.352Z,6.37
2018-07-14T03:21:43.831Z,11.22
2018-07-14T03:22:47.284Z,6.72
2018-07-14T03:23:50.663Z,7.22
2018-07-14T03:24:54.048Z,6.80
2018-07-14T03:25:58.416Z,6.30
2018-07-14T03:27:01.824Z,9.70
2018-07-14T03:28:05.147Z,5.53
2018-07-14T03:29:08.535Z,7.33
2018-07-14T03:30:13.015Z,8.25
2018-07-14T03:31:17.440Z,8.75
2018-07-14T03:32:20.864Z,7.80
2018-07-14T03:33:30.811Z,6.90
2018-07-14T03:34:34.246Z,7.58
2018-07-14T03:35:38.735Z,6.67
2018-07-14T03:36:42.195Z,7.20
2018-07-14T03:37:45.572Z,17.40
2018-07-14T03:38:48.975Z,10.43
2018-07-14T03:39:52.351Z,8.93
2018-07-14T03:40:56.768Z,9.03
2018-07-14T03:41:59.876Z,8.75
2018-07-14T03:43:03.263Z,6.20
2018-07-14T03:44:06.675Z,7.30
2018-07-14T03:45:11.762Z,9.88
2018-07-14T03:46:16.236Z,9.73
2018-07-14T03:47:19.343Z,8.43
2018-07-14T03:48:22.724Z,9.33
2018-07-14T03:49:26.123Z,10.15
2018-07-14T03:50:29.898Z,10.10
2018-07-14T03:51:32.999Z,8.95
2018-07-14T03:52:36.262Z,9.88
2018-07-14T03:53:39.648Z,10.00
2018-07-14T03:54:43.050Z,11.22
2018-07-14T03:55:46.925Z,7.53
2018-07-14T03:56:50.408Z,7.62
2018-07-14T03:57:53.787Z,8.75
2018-07-14T03:58:57.175Z,7.30
2018-07-14T04:00:00.588Z,9.98
2018-07-14T04:01:05.190Z,9.48
2018-07-14T04:02:08.623Z,8.73
2018-07-14T04:03:12.010Z,11.45
2018-07-14T04:04:15.391Z,9.10
2018-07-14T04:05:19.913Z,10.72
2018-07-14T04:06:25.029Z,7.80
2018-07-14T04:07:28.455Z,9.55
2018-07-14T04:08:31.852Z,11.15
2018-07-14T04:09:35.232Z,9.80
2018-07-14T04:10:40.062Z,12.85
2018-07-14T04:11:43.170Z,10.23
2018-07-14T04:12:46.291Z,7.62
2018-07-14T04:13:49.682Z,8.85
2018-07-14T04:14:53.112Z,7.53
2018-07-14T04:15:56.940Z,9.55
2018-07-14T04:17:00.371Z,12.60
2018-07-14T04:18:05.188Z,7.50
2018-07-14T04:19:08.576Z,10.82
2018-07-14T04:20:13.625Z,9.73
2018-07-14T04:21:18.778Z,8.70
2018-07-14T04:22:22.199Z,9.30
2018-07-14T04:23:25.584Z,10.58
2018-07-14T04:24:28.971Z,9.98
2018-07-14T04:25:33.186Z,9.28
2018-07-14T04:26:36.631Z,9.50
2018-07-14T04:27:40.042Z,9.30
2018-07-14T04:28:43.435Z,10.38
2018-07-14T04:29:46.831Z,9.95
2018-07-14T04:30:52.273Z,9.35
2018-07-14T04:31:55.706Z,9.70
2018-07-14T04:32:59.088Z,11.38
2018-07-14T04:34:02.493Z,9.93
2018-07-14T04:35:05.903Z,6.87
2018-07-14T04:36:10.245Z,8.98
2018-07-14T04:37:13.366Z,9.15
2018-07-14T04:38:16.749Z,8.93
2018-07-14T04:39:20.132Z,8.33
2018-07-14T04:40:24.561Z,8.08
2018-07-14T04:41:28.695Z,7.03
2018-07-14T04:42:32.201Z,8.20
2018-07-14T04:43:35.196Z,9.68
2018-07-14T04:44:38.266Z,11.90
2018-07-14T04:45:42.627Z,10.82
2018-07-14T04:46:46.043Z,9.08
2018-07-14T04:47:49.467Z,10.72
2018-07-14T04:48:52.867Z,12.03
2018-07-14T04:49:56.252Z,10.38
2018-07-14T04:51:00.785Z,7.85
2018-07-14T04:52:04.248Z,12.65
2018-07-14T04:53:07.701Z,9.68
2018-07-14T04:54:11.063Z,9.35
2018-07-14T04:55:17.013Z,13.75
2018-07-14T04:56:20.733Z,9.93
2018-07-14T04:57:24.180Z,11.83
2018-07-14T04:58:27.587Z,11.25
2018-07-14T04:59:30.984Z,10.45
2018-07-14T05:00:35.472Z,11.45
2018-07-14T05:01:38.949Z,8.70
2018-07-14T05:02:42.331Z,8.35
2018-07-14T05:03:45.735Z,8.43
2018-07-14T05:04:49.107Z,7.87
2018-07-14T05:05:53.606Z,7.85
2018-07-14T05:06:57.020Z,7.62
2018-07-14T05:08:00.415Z,9.90
2018-07-14T05:09:04.491Z,9.35
2018-07-14T05:10:09.008Z,10.08
2018-07-14T05:11:13.640Z,7.97
2018-07-14T05:12:17.055Z,7.90
2018-07-14T05:13:20.559Z,8.88
2018-07-14T05:14:23.959Z,8.28
2018-07-14T05:15:28.422Z,8.93
2018-07-14T05:16:31.836Z,13.25
2018-07-14T05:17:35.215Z,11.35
2018-07-14T05:18:38.317Z,7.83
2018-07-14T05:19:41.832Z,9.68
2018-07-14T05:20:46.366Z,8.38
2018-07-14T05:21:49.463Z,8.55
2018-07-14T05:22:53.604Z,9.63
2018-07-14T05:23:57.003Z,10.13
2018-07-14T05:25:00.387Z,9.35
2018-07-14T05:26:05.071Z,8.95
2018-07-14T05:27:08.488Z,10.45
2018-07-14T05:28:11.890Z,9.20
2018-07-14T05:29:15.287Z,11.00
2018-07-14T05:30:19.714Z,11.12
2018-07-14T05:31:24.473Z,8.95
2018-07-14T05:32:27.917Z,9.63
2018-07-14T05:33:31.299Z,8.73
2018-07-14T05:34:34.691Z,10.40
2018-07-14T05:35:39.707Z,9.85
2018-07-14T05:36:43.115Z,9.88
2018-07-14T05:37:46.211Z,9.00
2018-07-14T05:38:49.318Z,10.40
2018-07-14T05:39:52.707Z,10.85
2018-07-14T05:40:57.099Z,8.18
2018-07-14T05:42:00.531Z,9.95
2018-07-14T05:43:03.956Z,9.13
2018-07-14T05:44:07.386Z,12.45
2018-07-14T05:45:11.732Z,8.85
2018-07-14T05:46:16.188Z,10.38
2018-07-14T05:47:19.608Z,7.60
2018-07-14T05:48:23.091Z,13.38
2018-07-14T05:49:26.487Z,11.80
2018-07-14T05:50:30.797Z,11.12
2018-07-14T05:51:34.398Z,9.50
2018-07-14T05:52:37.820Z,9.73
2018-07-14T05:53:41.239Z,10.70
2018-07-14T05:54:44.631Z,10.00
2018-07-14T05:55:50.194Z,11.60
2018-07-14T05:56:53.607Z,8.55
2018-07-14T05:57:57.036Z,8.38
2018-07-14T05:59:00.468Z,9.45
2018-07-14T06:00:04.185Z,8.70
2018-07-14T06:01:09.069Z,8.93
2018-07-14T06:02:12.500Z,10.53
2018-07-14T06:03:15.895Z,9.20
2018-07-14T06:04:19.279Z,10.45
2018-07-14T06:05:23.652Z,11.28
2018-07-14T06:06:28.143Z,12.03
2018-07-14T06:07:31.547Z,10.38
2018-07-14T06:08:34.955Z,11.95
2018-07-14T06:09:38.341Z,8.95
2018-07-14T06:10:42.900Z,10.70
2018-07-14T06:11:46.299Z,8.25
2018-07-14T06:12:49.719Z,9.90
2018-07-14T06:13:53.119Z,11.25
2018-07-14T06:14:56.498Z,12.93
2018-07-14T06:16:00.999Z,9.10
2018-07-14T06:17:04.432Z,10.25
2018-07-14T06:18:07.839Z,9.03
2018-07-14T06:19:11.227Z,14.00
2018-07-14T06:20:15.649Z,9.90
2018-07-14T06:21:20.030Z,11.38
2018-07-14T06:22:23.150Z,9.33
2018-07-14T06:23:26.555Z,9.68
2018-07-14T06:24:29.955Z,11.53
2018-07-14T06:25:34.504Z,10.68
2018-07-14T06:26:37.971Z,11.63
2018-07-14T06:27:41.364Z,10.68
2018-07-14T06:28:44.772Z,12.13
2018-07-14T06:29:48.164Z,14.65
2018-07-14T06:30:52.547Z,11.70
2018-07-14T06:31:56.062Z,15.53
2018-07-14T06:32:59.389Z,9.68
2018-07-14T06:34:02.786Z,10.78
2018-07-14T06:35:07.895Z,10.50
2018-07-14T06:36:12.362Z,10.80
2018-07-14T06:37:15.799Z,13.00
2018-07-14T06:38:19.223Z,10.00
2018-07-14T06:39:22.599Z,12.85
2018-07-14T06:40:27.772Z,10.98
2018-07-14T06:41:31.237Z,20.32
2018-07-14T06:42:34.627Z,15.38
2018-07-14T06:43:38.060Z,17.90
2018-07-14T06:44:41.473Z,13.25
2018-07-14T06:45:45.898Z,18.80
2018-07-14T06:46:49.315Z,10.63
2018-07-14T06:47:52.722Z,14.35
2018-07-14T06:48:56.123Z,10.30
2018-07-14T06:49:59.517Z,9.70
2018-07-14T06:51:03.879Z,13.68
2018-07-14T06:52:07.491Z,14.00
2018-07-14T06:53:10.900Z,9.85
2018-07-14T06:54:14.342Z,12.93
2018-07-14T06:55:18.798Z,13.35
2018-07-14T06:56:23.380Z,10.93
2018-07-14T06:57:26.903Z,9.00
2018-07-14T06:58:30.315Z,11.97
2018-07-14T06:59:33.695Z,11.65
2018-07-14T07:00:38.001Z,11.30
2018-07-14T07:01:41.146Z,10.45
2018-07-14T07:02:44.599Z,11.53
2018-07-14T07:03:47.707Z,11.28
2018-07-14T07:04:51.099Z,13.28
2018-07-14T07:05:56.386Z,12.78
2018-07-14T07:06:59.795Z,12.73
2018-07-14T07:08:03.183Z,12.60
2018-07-14T07:09:06.595Z,11.57
2018-07-14T07:10:11.016Z,11.90
2018-07-14T07:11:15.531Z,9.58
2018-07-14T07:12:18.951Z,9.53
2018-07-14T07:13:22.370Z,10.90
2018-07-14T07:14:25.779Z,10.58
2018-07-14T07:15:30.276Z,11.30
2018-07-14T07:16:33.705Z,9.33
2018-07-14T07:17:37.280Z,13.40
2018-07-14T07:18:47.199Z,10.98
2018-07-14T07:19:50.599Z,16.93
2018-07-14T07:20:55.177Z,13.05
2018-07-14T07:21:58.597Z,12.58
2018-07-14T07:23:01.997Z,12.50
2018-07-14T07:24:05.415Z,14.87
2018-07-14T07:25:10.632Z,15.53
2018-07-14T07:26:15.242Z,12.40
2018-07-14T07:27:18.659Z,12.63
2018-07-14T07:28:22.088Z,15.43
2018-07-14T07:29:25.528Z,11.55
2018-07-14T07:30:30.594Z,12.23
2018-07-14T07:31:34.047Z,12.03
2018-07-14T07:32:37.203Z,10.28
2018-07-14T07:33:40.611Z,10.65
2018-07-14T07:34:44.044Z,12.05
2018-07-14T07:35:48.587Z,12.25
2018-07-14T07:36:52.195Z,12.10
2018-07-14T07:37:55.628Z,12.98
2018-07-14T07:38:59.347Z,11.25
2018-07-14T07:40:02.801Z,13.50
2018-07-14T07:41:07.190Z,13.62
2018-07-14T07:42:10.725Z,12.40
2018-07-14T07:43:14.098Z,14.30
2018-07-14T07:44:17.483Z,17.05
2018-07-14T07:45:21.942Z,13.20
2018-07-14T07:46:26.412Z,14.98
2018-07-14T07:47:29.816Z,14.98
2018-07-14T07:48:33.203Z,14.38
2018-07-14T07:49:36.624Z,18.05
2018-07-14T07:50:41.001Z,15.25
2018-07-14T07:51:44.107Z,13.70
2018-07-14T07:52:47.507Z,16.93
2018-07-14T07:53:50.911Z,11.57
2018-07-14T07:54:54.315Z,16.20
2018-07-14T07:55:58.700Z,13.05
2018-07-14T07:57:02.109Z,13.98
2018-07-14T07:58:05.518Z,13.38
2018-07-14T07:59:09.016Z,13.00
2018-07-14T08:00:13.504Z,12.82
2018-07-14T08:01:17.844Z,14.95
2018-07-14T08:02:21.263Z,16.97
2018-07-14T08:03:24.659Z,13.80
2018-07-14T08:04:28.063Z,12.40
2018-07-14T08:05:33.426Z,14.83
2018-07-14T08:06:36.527Z,15.10
2018-07-14T08:07:42.844Z,14.53
2018-07-14T08:08:46.294Z,13.85
2018-07-14T08:09:49.657Z,12.40
2018-07-14T08:10:53.953Z,12.40
2018-07-14T08:11:57.392Z,15.20
2018-07-14T08:13:00.808Z,20.85
2018-07-14T08:14:04.606Z,13.58
2018-07-14T08:15:15.327Z,12.10
2018-07-14T08:16:20.290Z,14.00
2018-07-14T08:17:23.718Z,12.82
2018-07-14T08:18:27.115Z,12.18
2018-07-14T08:19:30.538Z,13.30
2018-07-14T08:20:35.031Z,10.32
2018-07-14T08:21:38.476Z,12.63
2018-07-14T08:22:41.935Z,16.60
2018-07-14T08:23:45.296Z,11.78
2018-07-14T08:24:48.735Z,12.55
2018-07-14T08:25:52.536Z,12.88
2018-07-14T08:26:55.959Z,16.95
2018-07-14T08:27:59.367Z,14.25
2018-07-14T08:29:02.762Z,11.18
2018-07-14T08:30:07.432Z,13.30
2018-07-14T08:31:11.876Z,14.55
2018-07-14T08:32:15.318Z,10.43
2018-07-14T08:33:18.783Z,12.35
2018-07-14T08:34:22.187Z,15.68
2018-07-14T08:35:26.728Z,15.90
2018-07-14T08:36:30.413Z,16.35
2018-07-14T08:37:33.803Z,11.20
2018-07-14T08:38:37.196Z,10.43
2018-07-14T08:39:40.621Z,14.53
2018-07-14T08:40:45.224Z,13.08
2018-07-14T08:41:48.656Z,11.30
2018-07-14T08:42:52.070Z,12.55
2018-07-14T08:44:02.031Z,15.93
2018-07-14T08:45:07.631Z,17.40
2018-07-14T08:46:12.230Z,24.07
2018-07-14T08:47:15.648Z,18.62
2018-07-14T08:48:19.064Z,12.70
2018-07-14T08:49:22.477Z,10.78
2018-07-14T08:50:27.500Z,14.25
2018-07-14T08:51:30.941Z,13.60
2018-07-14T08:52:34.363Z,8.48
2018-07-14T08:53:37.755Z,11.10
2018-07-14T08:54:41.171Z,10.38
2018-07-14T08:55:45.628Z,10.05
2018-07-14T08:56:49.048Z,9.63
2018-07-14T08:57:52.435Z,18.02
2018-07-14T08:58:55.514Z,10.63
2018-07-14T08:59:58.939Z,13.78
2018-07-14T09:01:03.326Z,12.78
2018-07-14T09:02:06.743Z,10.53
2018-07-14T09:03:10.136Z,12.13
2018-07-14T09:04:13.543Z,10.43
2018-07-14T09:05:18.076Z,11.65
2018-07-14T09:06:22.406Z,12.03
2018-07-14T09:07:25.842Z,10.48
2018-07-14T09:08:29.229Z,12.33
2018-07-14T09:09:32.647Z,14.00
2018-07-14T09:10:37.002Z,22.42
2018-07-14T09:11:40.126Z,13.78
2018-07-14T09:12:43.515Z,11.63
2018-07-14T09:13:46.936Z,14.03
2018-07-14T09:14:50.344Z,12.85
2018-07-14T09:15:55.015Z,13.43
2018-07-14T09:16:58.504Z,15.45
2018-07-14T09:18:01.900Z,11.65
2018-07-14T09:19:05.307Z,16.32
2018-07-14T09:20:09.880Z,14.58
2018-07-14T09:21:14.441Z,11.30
2018-07-14T09:22:17.868Z,13.65
2018-07-14T09:23:21.261Z,16.52
2018-07-14T09:24:24.674Z,12.05
2018-07-14T09:25:29.179Z,12.47
2018-07-14T09:26:32.606Z,13.90
2018-07-14T09:27:36.020Z,11.73
2018-07-14T09:28:39.395Z,11.18
2018-07-14T09:29:42.784Z,12.80
2018-07-14T09:30:47.276Z,15.80
2018-07-14T09:31:50.695Z,12.73
2018-07-14T09:32:54.088Z,12.33
2018-07-14T09:33:57.172Z,11.97
2018-07-14T09:35:00.595Z,10.65
2018-07-14T09:36:05.013Z,12.55
2018-07-14T09:37:08.435Z,11.38
2018-07-14T09:38:11.808Z,11.28
2018-07-14T09:39:15.205Z,9.53
2018-07-14T09:40:19.639Z,14.20
2018-07-14T09:41:23.938Z,10.98
2018-07-14T09:42:27.030Z,16.73
2018-07-14T09:43:30.426Z,11.03
2018-07-14T09:44:33.865Z,11.18
2018-07-14T09:45:38.357Z,12.63
2018-07-14T09:46:41.776Z,14.98
2018-07-14T09:47:45.191Z,12.68
2018-07-14T09:48:48.251Z,13.20
2018-07-14T09:49:51.652Z,11.20
2018-07-14T09:50:56.179Z,11.60
2018-07-14T09:51:59.595Z,10.03
2018-07-14T09:53:02.995Z,12.50
2018-07-14T09:54:12.831Z,9.35
2018-07-14T09:55:17.322Z,11.53
2018-07-14T09:56:21.712Z,11.20
2018-07-14T09:57:25.175Z,17.42
2018-07-14T09:58:28.724Z,17.55
2018-07-14T09:59:32.124Z,13.48
2018-07-14T10:00:36.788Z,14.53
2018-07-14T10:01:40.200Z,11.35
2018-07-14T10:02:43.591Z,13.45
2018-07-14T10:03:46.983Z,11.65
2018-07-14T10:04:50.391Z,11.83
2018-07-14T10:05:54.234Z,13.00
2018-07-14T10:06:57.663Z,12.95
2018-07-14T10:08:01.094Z,13.45
2018-07-14T10:09:05.059Z,12.20
2018-07-14T10:10:08.640Z,25.17
2018-07-14T10:11:13.005Z,17.90
2018-07-14T10:12:16.419Z,12.03
2018-07-14T10:13:19.869Z,10.50
2018-07-14T10:14:23.238Z,12.98
2018-07-14T10:15:27.172Z,13.13
2018-07-14T10:16:30.597Z,10.35
2018-07-14T10:17:34.025Z,11.60
2018-07-14T10:18:37.399Z,8.70
2018-07-14T10:19:40.502Z,9.43
2018-07-14T10:20:45.329Z,11.00
2018-07-14T10:21:48.775Z,11.00
2018-07-14T10:22:51.855Z,12.03
2018-07-14T10:23:54.938Z,11.03
2018-07-14T10:24:58.044Z,10.65
2018-07-14T10:26:02.558Z,10.63
2018-07-14T10:27:06.012Z,12.00
2018-07-14T10:28:09.107Z,13.98
2018-07-14T10:29:12.246Z,7.47
2018-07-14T10:30:16.453Z,8.13
2018-07-14T10:31:21.458Z,8.90
2018-07-14T10:32:24.883Z,10.00
2018-07-14T10:33:28.008Z,9.10
2018-07-14T10:34:31.440Z,12.07
2018-07-14T10:35:36.262Z,11.97
2018-07-14T10:36:39.691Z,8.00
2018-07-14T10:37:43.091Z,11.80
2018-07-14T10:38:46.527Z,10.23
2018-07-14T10:39:49.911Z,8.93
2018-07-14T10:40:54.522Z,10.05
2018-07-14T10:41:57.949Z,9.05
2018-07-14T10:43:01.372Z,10.48
2018-07-14T10:44:04.769Z,7.62
2018-07-14T10:45:09.271Z,9.25
2018-07-14T10:46:13.256Z,9.28
2018-07-14T10:47:16.664Z,8.38
2018-07-14T10:48:20.064Z,10.40
2018-07-14T10:49:23.452Z,9.15
2018-07-14T10:50:27.952Z,10.50
2018-07-14T10:51:31.077Z,11.25
2018-07-14T10:52:34.482Z,10.13
2018-07-14T10:53:37.883Z,13.35
2018-07-14T10:54:41.283Z,11.95
2018-07-14T10:55:45.594Z,9.70
2018-07-14T10:56:49.007Z,9.53
2018-07-14T10:57:52.411Z,14.33
2018-07-14T10:58:55.798Z,13.05
2018-07-14T10:59:59.215Z,10.32
2018-07-14T11:01:03.991Z,11.35
2018-07-14T11:02:07.543Z,11.73
2018-07-14T11:03:10.932Z,13.20
2018-07-14T11:04:14.331Z,10.30
2018-07-14T11:05:18.653Z,11.93
2018-07-14T11:06:23.142Z,9.73
2018-07-14T11:07:26.251Z,8.88
2018-07-14T11:08:35.817Z,8.70
2018-07-14T11:09:39.215Z,9.30
2018-07-14T11:10:43.538Z,8.23
2018-07-14T11:11:46.695Z,12.37
2018-07-14T11:12:50.096Z,12.10
2018-07-14T11:13:53.487Z,13.75
2018-07-14T11:14:56.890Z,10.28
2018-07-14T11:16:01.421Z,9.28
2018-07-14T11:17:05.011Z,8.95
2018-07-14T11:18:08.411Z,11.53
2018-07-14T11:19:11.833Z,11.33
2018-07-14T11:20:16.118Z,12.95
2018-07-14T11:21:20.717Z,8.53
2018-07-14T11:22:24.258Z,10.58
2018-07-14T11:23:27.648Z,12.58
2018-07-14T11:24:31.031Z,8.93
2018-07-14T11:25:36.272Z,11.38
2018-07-14T11:26:39.714Z,10.43
2018-07-14T11:27:43.104Z,10.05
2018-07-14T11:28:46.545Z,10.00
2018-07-14T11:29:49.984Z,9.48
2018-07-14T11:30:55.466Z,11.75
2018-07-14T11:32:05.372Z,10.82
2018-07-14T11:33:08.763Z,12.47
2018-07-14T11:34:12.158Z,10.78
2018-07-14T11:35:16.273Z,10.43
2018-07-14T11:36:21.642Z,10.18
2018-07-14T11:37:25.087Z,11.08
2018-07-14T11:38:28.468Z,9.13
2018-07-14T11:39:31.871Z,10.82
2018-07-14T11:40:36.382Z,9.18
2018-07-14T11:41:39.819Z,11.10
2018-07-14T11:42:43.217Z,7.90
2018-07-14T11:43:46.600Z,9.65
2018-07-14T11:44:49.995Z,9.78
2018-07-14T11:45:54.788Z,7.87
2018-07-14T11:46:58.243Z,10.48
2018-07-14T11:48:01.388Z,9.65
2018-07-14T11:49:04.728Z,7.20
2018-07-14T11:50:08.226Z,9.70
2018-07-14T11:51:12.790Z,8.23
2018-07-14T11:52:15.913Z,9.38
2018-07-14T11:53:19.536Z,13.75
2018-07-14T11:54:22.999Z,11.05
2018-07-14T11:55:27.703Z,9.60
2018-07-14T11:56:31.127Z,10.63
2018-07-14T11:57:34.527Z,7.40
2018-07-14T11:58:37.945Z,13.32
2018-07-14T11:59:41.035Z,11.93
2018-07-14T12:00:45.571Z,10.72
2018-07-14T12:01:49.106Z,11.28
2018-07-14T12:02:52.507Z,10.08
2018-07-14T12:03:55.603Z,9.10
2018-07-14T12:04:58.999Z,7.78
2018-07-14T12:06:03.457Z,8.93
2018-07-14T12:07:06.618Z,11.48
2018-07-14T12:08:10.116Z,8.65
2018-07-14T12:09:13.560Z,10.15
2018-07-14T12:10:18.968Z,10.75
2018-07-14T12:11:23.319Z,8.83
2018-07-14T12:12:26.763Z,10.30
2018-07-14T12:13:30.208Z,10.00
2018-07-14T12:14:33.615Z,7.37
2018-07-14T12:15:38.496Z,5.17
2018-07-14T12:16:41.927Z,8.83
2018-07-14T12:17:45.335Z,7.62
2018-07-14T12:18:48.442Z,8.43
2018-07-14T12:19:51.829Z,9.63
2018-07-14T12:20:56.337Z,7.72
2018-07-14T12:21:59.738Z,11.15
2018-07-14T12:23:03.139Z,11.28
2018-07-14T12:24:06.855Z,7.42
2018-07-14T12:25:11.112Z,9.23
2018-07-14T12:26:15.667Z,9.10
2018-07-14T12:27:18.795Z,8.20
2018-07-14T12:28:25.199Z,13.10
2018-07-14T12:29:28.597Z,13.40
2018-07-14T12:30:33.402Z,9.13
2018-07-14T12:31:36.830Z,11.65
2018-07-14T12:32:39.922Z,9.15
2018-07-14T12:33:43.074Z,7.70
2018-07-14T12:34:46.467Z,9.03
2018-07-14T12:35:50.449Z,9.93
2018-07-14T12:36:53.565Z,9.30
2018-07-14T12:37:56.651Z,10.20
2018-07-14T12:39:00.051Z,11.30
2018-07-14T12:40:03.972Z,11.12
2018-07-14T12:41:08.414Z,8.50
2018-07-14T12:42:11.502Z,8.70
2018-07-14T12:43:14.626Z,11.93
2018-07-14T12:44:18.023Z,11.88
2018-07-14T12:45:22.663Z,11.63
2018-07-14T12:46:26.581Z,8.18
2018-07-14T12:47:30.020Z,8.78
2018-07-14T12:48:33.407Z,7.12
2018-07-14T12:49:36.811Z,6.95
2018-07-14T12:50:41.569Z,13.03
2018-07-14T12:51:44.976Z,8.48
2018-07-14T12:52:48.391Z,10.63
2018-07-14T12:53:51.876Z,9.90
2018-07-14T12:54:55.211Z,12.70
2018-07-14T12:55:59.058Z,10.72
2018-07-14T12:57:02.476Z,7.92
2018-07-14T12:58:05.980Z,9.50
2018-07-14T12:59:09.389Z,10.00
2018-07-14T13:00:14.114Z,10.68
2018-07-14T13:01:18.707Z,11.18
2018-07-14T13:02:22.621Z,8.23
2018-07-14T13:03:26.088Z,8.30
2018-07-14T13:04:29.186Z,9.63
2018-07-14T13:05:33.635Z,8.03
2018-07-14T13:06:37.085Z,7.85
2018-07-14T13:07:40.498Z,9.68
2018-07-14T13:08:43.876Z,10.20
2018-07-14T13:09:47.275Z,7.50
2018-07-14T13:10:51.767Z,7.47
2018-07-14T13:11:55.197Z,8.77
2018-07-14T13:12:58.588Z,8.17
2018-07-14T13:14:02.015Z,7.17
2018-07-14T13:15:06.977Z,9.08
2018-07-14T13:16:11.416Z,6.87
2018-07-14T13:17:14.947Z,6.25
2018-07-14T13:18:18.396Z,7.37
2018-07-14T13:19:21.475Z,9.90
2018-07-14T13:20:26.520Z,9.20
2018-07-14T13:21:30.316Z,8.03
2018-07-14T13:22:33.707Z,8.80
2018-07-14T13:23:37.120Z,9.43
2018-07-14T13:24:40.515Z,6.97
2018-07-14T13:25:45.100Z,7.58
2018-07-14T13:26:48.612Z,7.50
2018-07-14T13:27:52.004Z,8.35
2018-07-14T13:28:55.407Z,7.40
2018-07-14T13:29:58.809Z,11.00
2018-07-14T13:31:02.652Z,6.85
2018-07-14T13:32:06.384Z,6.85
2018-07-14T13:33:09.823Z,9.55
2018-07-14T13:34:13.247Z,6.35
2018-07-14T13:35:18.573Z,5.62
2018-07-14T13:36:22.770Z,9.50
2018-07-14T13:37:26.259Z,10.65
2018-07-14T13:38:29.682Z,11.87
2018-07-14T13:39:33.085Z,7.85
2018-07-14T13:40:36.970Z,5.77
2018-07-14T13:41:40.383Z,6.55
2018-07-14T13:42:43.444Z,6.87
2018-07-14T13:43:46.847Z,7.43
2018-07-14T13:44:50.291Z,7.27
2018-07-14T13:45:54.497Z,5.40
2018-07-14T13:46:57.891Z,6.13
2018-07-14T13:48:01.283Z,7.17
2018-07-14T13:49:04.692Z,6.70
2018-07-14T13:50:09.139Z,13.30
2018-07-14T13:51:13.481Z,9.80
2018-07-14T13:52:16.584Z,9.40
2018-07-14T13:53:19.998Z,6.47
2018-07-14T13:54:23.387Z,6.85
2018-07-14T13:55:27.848Z,9.03
2018-07-14T13:56:33.522Z,8.07